Time;durP1;ratioP1;P1;durP2;ratioP2;P2;SDS_P1;SDS_P2;PMS_P1;PMS_P2;Temp;Humidity;BMP_temperature;BMP_pressure;BME280_temperature;BME280_humidity;BME280_pressure;Samples;Min_cycle;Max_cycle;Signal;HPM_P1;HPM_P2
2021/07/29 00:02:25;;;;;;;7.33;2.10;;;18.80;63.50;;;;;;5003471;28;20274;-94
2021/07/29 00:04:51;;;;;;;7.90;2.17;;;18.80;63.70;;;;;;5003324;28;20175;-94
2021/07/29 00:07:17;;;;;;;5.72;2.15;;;18.80;64.10;;;;;;5002454;28;20461;-94
2021/07/29 00:09:46;;;;;;;4.97;2.10;;;18.80;64.20;;;;;;5003403;28;20559;-94
2021/07/29 00:12:13;;;;;;;11.30;2.38;;;18.70;64.10;;;;;;5007130;28;20496;-92
2021/07/29 00:14:41;;;;;;;5.30;2.13;;;18.60;64.10;;;;;;5008356;28;20191;-94
2021/07/29 00:17:16;;;;;;;4.85;2.30;;;18.60;64.40;;;;;;5003567;28;20211;-94
2021/07/29 00:19:42;;;;;;;11.07;2.38;;;18.60;64.60;;;;;;5002478;28;20178;-94
2021/07/29 00:22:08;;;;;;;9.50;2.50;;;18.50;64.70;;;;;;5005286;28;20211;-94
2021/07/29 00:24:34;;;;;;;4.17;1.97;;;18.40;64.70;;;;;;5007154;28;20237;-93
2021/07/29 00:26:59;;;;;;;5.90;1.60;;;18.50;64.80;;;;;;5006700;28;20461;-94
2021/07/29 00:29:25;;;;;;;4.40;2.10;;;18.50;64.60;;;;;;5008507;28;20265;-93
2021/07/29 00:31:51;;;;;;;5.00;2.07;;;18.50;64.80;;;;;;5007826;28;20215;-94
2021/07/29 00:34:17;;;;;;;3.40;2.20;;;18.40;65.10;;;;;;5003043;28;20646;-94
2021/07/29 00:36:42;;;;;;;7.53;2.53;;;18.40;65.30;;;;;;5002488;28;20504;-93
2021/07/29 00:39:08;;;;;;;7.07;2.13;;;18.30;65.50;;;;;;5002666;28;20222;-94
2021/07/29 00:41:34;;;;;;;8.80;2.37;;;18.20;65.70;;;;;;5002333;28;20190;-94
2021/07/29 00:44:04;;;;;;;5.50;2.20;;;18.30;66.10;;;;;;5001905;28;20176;-94
2021/07/29 00:46:34;;;;;;;2.50;2.30;;;18.30;66.10;;;;;;5002332;28;20179;-94
2021/07/29 00:49:01;;;;;;;6.80;2.28;;;18.30;66.20;;;;;;5002386;28;20263;-94
2021/07/29 00:51:28;;;;;;;7.75;2.40;;;18.40;66.10;;;;;;5004003;28;20202;-93
2021/07/29 00:53:55;;;;;;;6.53;2.70;;;18.40;66.20;;;;;;5013574;28;20298;-93
2021/07/29 00:56:21;;;;;;;9.02;2.85;;;18.40;66.00;;;;;;5015134;28;20167;-93
2021/07/29 00:58:47;;;;;;;10.07;3.00;;;18.40;66.10;;;;;;5015418;28;20183;-93
2021/07/29 01:01:13;;;;;;;5.57;2.58;;;18.40;66.20;;;;;;5011020;28;20410;-93
2021/07/29 01:03:38;;;;;;;5.80;2.57;;;18.40;66.10;;;;;;5004622;28;20218;-93
2021/07/29 01:06:04;;;;;;;3.83;2.10;;;18.50;66.10;;;;;;5009836;28;20449;-94
2021/07/29 01:08:30;;;;;;;7.10;2.17;;;18.60;66.00;;;;;;5010815;28;20173;-94
2021/07/29 01:10:55;;;;;;;2.30;1.67;;;18.60;66.00;;;;;;5007349;28;20183;-94
2021/07/29 01:13:21;;;;;;;4.13;2.70;;;18.80;65.80;;;;;;5004219;28;20241;-94
2021/07/29 01:15:47;;;;;;;13.03;2.53;;;18.80;65.50;;;;;;5004467;28;20214;-93
2021/07/29 01:18:13;;;;;;;6.23;2.13;;;18.60;65.40;;;;;;5004207;28;20175;-93
2021/07/29 01:20:38;;;;;;;7.10;2.30;;;18.60;65.70;;;;;;5002680;28;20190;-93
2021/07/29 01:23:04;;;;;;;7.57;4.63;;;18.70;65.80;;;;;;5002978;28;20215;-93
2021/07/29 01:25:30;;;;;;;8.07;2.40;;;18.70;65.90;;;;;;5002786;28;20179;-93
2021/07/29 01:27:55;;;;;;;5.40;2.10;;;18.60;65.70;;;;;;5001429;28;20206;-94
2021/07/29 01:30:21;;;;;;;6.30;2.60;;;18.70;65.90;;;;;;5001293;28;20186;-93
2021/07/29 01:32:47;;;;;;;4.00;2.37;;;18.60;66.20;;;;;;5001678;28;20206;-94
2021/07/29 01:35:13;;;;;;;4.23;2.33;;;18.60;66.00;;;;;;5001333;28;20426;-94
2021/07/29 01:37:42;;;;;;;15.77;2.33;;;18.60;66.00;;;;;;5001609;28;20266;-93
2021/07/29 01:40:09;;;;;;;11.50;3.05;;;18.60;66.10;;;;;;5002219;28;20183;-94
2021/07/29 01:42:35;;;;;;;5.97;2.80;;;18.60;66.20;;;;;;5001217;28;20202;-93
2021/07/29 01:45:01;;;;;;;6.80;3.10;;;18.60;66.30;;;;;;5003576;28;20179;-94
2021/07/29 01:47:27;;;;;;;8.43;2.55;;;18.60;66.40;;;;;;5002430;28;20857;-94
2021/07/29 01:49:54;;;;;;;6.97;2.80;;;18.50;67.30;;;;;;5002435;28;20195;-93
2021/07/29 01:52:20;;;;;;;11.82;3.40;;;18.50;66.70;;;;;;5001926;28;20843;-94
2021/07/29 01:54:45;;;;;;;11.68;2.80;;;18.50;66.70;;;;;;5002331;28;20334;-94
2021/07/29 01:57:11;;;;;;;7.03;3.10;;;18.50;66.80;;;;;;4985561;28;20207;-93
2021/07/29 01:59:37;;;;;;;7.40;2.63;;;18.40;66.90;;;;;;5000576;28;20202;-94
2021/07/29 02:02:05;;;;;;;10.73;2.93;;;18.40;67.00;;;;;;5000603;28;20195;-93
2021/07/29 02:04:30;;;;;;;4.43;2.50;;;18.30;67.20;;;;;;5005710;28;20410;-94
2021/07/29 02:06:56;;;;;;;10.83;2.90;;;18.20;67.30;;;;;;5006580;28;20221;-93
2021/07/29 02:09:22;;;;;;;3.30;2.40;;;18.20;67.50;;;;;;5004371;28;20437;-93
2021/07/29 02:11:52;;;;;;;12.40;2.70;;;18.20;67.60;;;;;;5005421;28;20210;-93
2021/07/29 02:14:22;;;;;;;4.43;3.45;;;18.20;67.60;;;;;;5001449;28;20293;-93
2021/07/29 02:16:49;;;;;;;6.15;3.00;;;18.10;67.70;;;;;;5002910;28;20179;-93
2021/07/29 02:19:14;;;;;;;3.45;2.50;;;18.10;67.90;;;;;;5003163;28;20179;-93
2021/07/29 02:21:42;;;;;;;7.23;2.67;;;18.00;68.10;;;;;;5001277;28;20198;-93
2021/07/29 02:24:08;;;;;;;9.88;2.15;;;18.00;68.20;;;;;;5002322;28;20184;-94
2021/07/29 02:26:34;;;;;;;10.97;2.50;;;17.90;68.40;;;;;;5002532;28;20184;-93
2021/07/29 02:28:59;;;;;;;6.47;2.40;;;17.80;68.50;;;;;;5003711;28;20431;-94
2021/07/29 02:31:25;;;;;;;6.80;2.30;;;17.90;68.80;;;;;;5003200;28;20943;-94
2021/07/29 02:33:51;;;;;;;10.90;3.53;;;17.90;69.00;;;;;;5002052;28;20465;-93
2021/07/29 02:36:16;;;;;;;5.70;3.43;;;17.90;69.00;;;;;;5000932;28;20630;-94
2021/07/29 02:38:42;;;;;;;5.13;3.00;;;17.90;69.10;;;;;;4999753;28;20190;-94
2021/07/29 02:41:08;;;;;;;13.77;3.40;;;17.80;69.10;;;;;;5000083;28;20214;-94
2021/07/29 02:43:35;;;;;;;6.22;3.20;;;17.80;69.20;;;;;;5000671;28;20264;-94
2021/07/29 02:46:00;;;;;;;5.73;2.40;;;17.80;69.40;;;;;;5000139;28;20195;-94
2021/07/29 02:48:26;;;;;;;7.13;2.90;;;18.00;69.50;;;;;;5000719;28;20665;-94
2021/07/29 02:50:54;;;;;;;13.20;2.97;;;17.90;69.20;;;;;;5000793;28;20179;-93
2021/07/29 02:53:21;;;;;;;5.03;2.50;;;17.90;69.60;;;;;;4999190;28;20215;-94
2021/07/29 02:55:48;;;;;;;6.13;2.58;;;17.80;69.30;;;;;;4999156;28;20183;-93
2021/07/29 02:58:14;;;;;;;8.45;2.53;;;17.70;69.60;;;;;;5000197;28;20187;-94
2021/07/29 03:00:40;;;;;;;5.70;2.65;;;17.80;69.50;;;;;;5004779;28;20190;-94
2021/07/29 03:03:05;;;;;;;8.47;3.83;;;17.70;69.50;;;;;;5009513;28;20666;-93
2021/07/29 03:05:31;;;;;;;6.80;2.60;;;17.70;69.80;;;;;;5000779;28;20175;-93
2021/07/29 03:07:57;;;;;;;8.53;3.47;;;17.60;70.00;;;;;;5002685;28;20611;-93
2021/07/29 03:10:23;;;;;;;5.80;2.97;;;17.60;70.20;;;;;;5002036;28;20425;-93
2021/07/29 03:12:49;;;;;;;9.20;2.93;;;17.60;70.40;;;;;;5002922;28;20218;-93
2021/07/29 03:15:14;;;;;;;15.23;3.23;;;17.90;71.10;;;;;;5005777;28;20191;-93
2021/07/29 03:17:40;;;;;;;7.70;2.63;;;17.90;70.00;;;;;;4983267;28;20199;-94
2021/07/29 03:20:06;;;;;;;5.33;2.40;;;17.90;69.70;;;;;;4998880;28;20283;-94
2021/07/29 03:22:32;;;;;;;10.25;2.75;;;17.90;69.80;;;;;;4999684;28;20230;-94
2021/07/29 03:24:58;;;;;;;5.23;2.73;;;17.90;69.80;;;;;;4999806;28;20195;-93
2021/07/29 03:27:23;;;;;;;5.30;2.47;;;17.80;69.80;;;;;;4999213;28;20187;-93
2021/07/29 03:29:49;;;;;;;5.93;2.67;;;17.80;70.10;;;;;;4999321;28;20277;-94
2021/07/29 03:32:15;;;;;;;7.03;2.90;;;17.80;69.80;;;;;;4999519;28;20235;-94
2021/07/29 03:34:40;;;;;;;7.43;2.30;;;17.70;70.00;;;;;;5001100;28;20524;-93
2021/07/29 03:37:06;;;;;;;6.40;3.30;;;17.70;70.10;;;;;;5000106;28;20176;-93
2021/07/29 03:39:32;;;;;;;6.63;2.70;;;17.60;70.30;;;;;;4999086;28;20191;-93
2021/07/29 03:41:58;;;;;;;5.03;2.57;;;17.50;70.20;;;;;;4999922;28;20286;-93
2021/07/29 03:44:23;;;;;;;9.23;2.70;;;17.50;70.40;;;;;;5002622;28;20422;-93
2021/07/29 03:46:49;;;;;;;7.23;2.60;;;17.60;70.40;;;;;;5002960;28;20175;-94
2021/07/29 03:49:14;;;;;;;6.47;2.40;;;17.60;70.50;;;;;;5002064;28;20202;-93
2021/07/29 03:51:40;;;;;;;10.23;3.27;;;17.60;70.20;;;;;;5003291;28;20206;-94
2021/07/29 03:54:06;;;;;;;7.50;4.00;;;17.60;70.50;;;;;;5002731;28;20190;-94
2021/07/29 03:56:32;;;;;;;8.27;2.20;;;17.70;70.40;;;;;;5006790;28;20199;-93
2021/07/29 03:58:57;;;;;;;7.53;3.30;;;17.70;70.30;;;;;;5008650;28;20183;-93
2021/07/29 04:01:23;;;;;;;5.63;3.53;;;17.80;70.10;;;;;;5001937;28;20183;-94
2021/07/29 04:03:49;;;;;;;13.47;3.17;;;17.80;69.90;;;;;;5002891;28;20206;-93
2021/07/29 04:06:18;;;;;;;11.00;2.30;;;17.70;69.90;;;;;;5005766;28;20183;-94
2021/07/29 04:08:44;;;;;;;12.15;3.25;;;17.60;70.10;;;;;;5005379;28;20619;-93
2021/07/29 04:11:09;;;;;;;4.33;2.33;;;17.70;70.20;;;;;;5003041;28;20234;-93
2021/07/29 04:13:35;;;;;;;13.03;2.90;;;17.70;70.80;;;;;;5003021;28;20717;-94
2021/07/29 04:16:01;;;;;;;5.57;2.97;;;17.80;69.80;;;;;;5002891;28;20175;-94
2021/07/29 04:18:31;;;;;;;6.70;2.83;;;17.80;69.60;;;;;;5002054;28;20244;-94
2021/07/29 04:20:57;;;;;;;11.05;3.40;;;17.80;69.80;;;;;;5007320;28;20179;-93
2021/07/29 04:23:23;;;;;;;14.73;3.95;;;17.80;69.80;;;;;;5002290;28;20203;-93
2021/07/29 04:25:48;;;;;;;10.33;2.93;;;17.70;69.80;;;;;;5003804;28;20191;-93
2021/07/29 04:28:14;;;;;;;7.63;3.70;;;17.80;69.80;;;;;;5005305;28;20194;-93
2021/07/29 04:30:40;;;;;;;11.73;3.10;;;17.70;69.80;;;;;;5002809;28;20186;-93
2021/07/29 04:33:09;;;;;;;9.70;3.00;;;17.60;70.00;;;;;;5001432;28;20211;-93
2021/07/29 04:35:37;;;;;;;14.02;2.70;;;17.50;70.20;;;;;;5000733;28;20187;-93
2021/07/29 04:38:03;;;;;;;7.07;2.38;;;17.50;70.40;;;;;;5001701;28;20198;-94
2021/07/29 04:40:29;;;;;;;7.07;3.27;;;17.50;70.30;;;;;;5001480;28;20664;-93
2021/07/29 04:42:55;;;;;;;6.33;2.97;;;17.50;70.50;;;;;;5000577;28;20505;-93
2021/07/29 04:45:20;;;;;;;5.90;2.30;;;17.50;70.60;;;;;;5008680;28;20183;-93
2021/07/29 04:47:46;;;;;;;14.47;2.90;;;17.50;70.70;;;;;;5013775;28;20442;-93
2021/07/29 04:50:12;;;;;;;4.80;2.60;;;17.50;70.50;;;;;;5005424;28;20182;-93
2021/07/29 04:52:38;;;;;;;10.70;3.03;;;17.50;70.70;;;;;;5007850;28;20466;-92
2021/07/29 04:55:04;;;;;;;9.03;2.23;;;17.60;70.40;;;;;;5005042;28;20422;-94
2021/07/29 04:57:32;;;;;;;7.78;3.35;;;17.70;70.10;;;;;;5003256;28;20631;-93
2021/07/29 04:59:58;;;;;;;7.50;2.92;;;17.80;69.50;;;;;;5001379;28;20187;-93
2021/07/29 05:02:23;;;;;;;10.57;3.07;;;17.80;69.50;;;;;;5000596;28;20203;-94
2021/07/29 05:04:49;;;;;;;7.07;2.73;;;17.90;69.30;;;;;;5000821;28;20426;-94
2021/07/29 05:07:15;;;;;;;9.27;4.43;;;18.00;69.10;;;;;;5000772;28;20187;-94
2021/07/29 05:09:40;;;;;;;24.27;3.93;;;17.90;68.90;;;;;;5000622;28;20187;-94
2021/07/29 05:12:06;;;;;;;9.90;2.57;;;18.00;69.00;;;;;;5000545;28;20222;-94
2021/07/29 05:14:32;;;;;;;6.57;3.25;;;18.20;68.60;;;;;;4999940;28;20199;-93
2021/07/29 05:17:02;;;;;;;10.57;3.00;;;18.20;68.30;;;;;;5001081;28;20194;-94
2021/07/29 05:19:28;;;;;;;11.15;3.30;;;18.40;68.00;;;;;;5001059;28;20186;-93
2021/07/29 05:21:54;;;;;;;6.80;2.33;;;18.40;67.60;;;;;;5001001;28;20210;-94
2021/07/29 05:24:20;;;;;;;15.03;2.97;;;18.50;67.50;;;;;;5003341;28;20183;-93
2021/07/29 05:26:45;;;;;;;5.10;2.20;;;18.60;67.00;;;;;;5004484;28;20183;-93
2021/07/29 05:29:11;;;;;;;5.50;2.43;;;18.60;66.70;;;;;;5007063;28;20548;-93
2021/07/29 05:31:41;;;;;;;11.87;2.60;;;18.80;66.60;;;;;;5003123;28;20214;-93
2021/07/29 05:34:08;;;;;;;8.18;2.40;;;18.80;66.10;;;;;;5000314;28;20827;-93
2021/07/29 05:36:33;;;;;;;8.77;2.47;;;19.00;66.00;;;;;;4998275;28;20563;-92
2021/07/29 05:38:59;;;;;;;9.87;3.03;;;19.30;65.70;;;;;;4997488;28;20201;-93
2021/07/29 05:41:25;;;;;;;11.70;3.15;;;19.60;64.70;;;;;;4997733;28;20266;-92
2021/07/29 05:43:51;;;;;;;6.50;2.83;;;20.00;63.60;;;;;;4997103;28;20211;-92
2021/07/29 05:46:17;;;;;;;7.60;2.47;;;20.70;61.90;;;;;;4998348;28;20183;-92
2021/07/29 05:48:42;;;;;;;6.53;2.10;;;21.40;59.40;;;;;;4998918;28;20202;-92
2021/07/29 05:51:08;;;;;;;5.23;2.30;;;21.80;58.00;;;;;;4997204;28;20186;-93
2021/07/29 05:53:34;;;;;;;7.23;2.23;;;22.30;56.90;;;;;;4995141;28;20238;-93
2021/07/29 05:56:00;;;;;;;7.47;2.23;;;22.90;54.70;;;;;;4994385;28;20186;-92
2021/07/29 05:58:26;;;;;;;4.00;2.13;;;23.10;53.40;;;;;;4994884;28;20179;-93
2021/07/29 06:00:52;;;;;;;7.93;2.30;;;23.30;52.40;;;;;;4996938;28;20231;-93
2021/07/29 06:03:18;;;;;;;7.00;2.03;;;24.00;51.40;;;;;;4994586;28;20901;-93
2021/07/29 06:05:44;;;;;;;13.63;2.67;;;24.50;49.80;;;;;;4995636;28;20577;-93
2021/07/29 06:08:10;;;;;;;6.97;2.70;;;25.00;48.20;;;;;;4995867;28;20187;-92
2021/07/29 06:10:36;;;;;;;9.13;3.20;;;25.10;47.10;;;;;;4995404;28;20425;-93
2021/07/29 06:13:02;;;;;;;11.47;2.30;;;25.10;47.20;;;;;;4996714;28;20220;-92
2021/07/29 06:15:28;;;;;;;6.80;2.67;;;25.20;47.30;;;;;;4996801;28;20202;-93
2021/07/29 06:17:58;;;;;;;10.37;2.87;;;25.20;46.90;;;;;;4996667;28;20407;-93
2021/07/29 06:20:25;;;;;;;13.07;2.80;;;25.40;46.50;;;;;;4997457;28;20217;-93
2021/07/29 06:22:50;;;;;;;6.70;2.53;;;24.90;46.60;;;;;;4995947;28;20496;-92
2021/07/29 06:25:18;;;;;;;9.57;2.07;;;24.80;47.20;;;;;;4995138;28;20422;-93
2021/07/29 06:27:49;;;;;;;9.80;3.17;;;24.50;47.90;;;;;;4995425;28;20190;-93
2021/07/29 06:30:16;;;;;;;9.10;3.07;;;24.90;48.00;;;;;;4996181;28;20426;-93
2021/07/29 06:32:44;;;;;;;14.30;4.23;;;24.60;47.20;;;;;;4997272;28;20454;-93
2021/07/29 06:35:11;;;;;;;14.30;2.97;;;24.10;48.50;;;;;;4994814;28;20481;-93
2021/07/29 06:37:37;;;;;;;9.80;2.97;;;24.20;48.50;;;;;;4994539;28;20509;-93
2021/07/29 06:40:04;;;;;;;10.80;2.90;;;24.00;48.60;;;;;;4995094;28;20419;-93
2021/07/29 06:42:32;;;;;;;7.00;3.37;;;24.00;49.20;;;;;;4993967;28;20516;-94
2021/07/29 06:44:58;;;;;;;8.67;3.33;;;23.80;49.60;;;;;;5000589;28;20426;-92
2021/07/29 06:47:24;;;;;;;10.17;2.50;;;23.40;50.10;;;;;;4998259;28;20434;-93
2021/07/29 06:49:53;;;;;;;12.73;4.07;;;23.20;50.40;;;;;;4994903;28;20415;-93
2021/07/29 06:52:19;;;;;;;7.73;3.03;;;23.10;51.40;;;;;;4995221;28;20494;-93
2021/07/29 06:54:45;;;;;;;14.77;3.30;;;23.20;51.40;;;;;;4993884;28;20410;-93
2021/07/29 06:57:10;;;;;;;9.00;4.30;;;23.10;51.50;;;;;;4993760;28;20468;-92
2021/07/29 06:59:37;;;;;;;8.43;2.93;;;23.10;51.50;;;;;;4995012;28;20777;-93
2021/07/29 07:02:05;;;;;;;9.17;3.13;;;22.90;51.20;;;;;;4993549;28;20200;-92
2021/07/29 07:04:35;;;;;;;6.17;3.47;;;23.00;51.50;;;;;;4995247;28;20430;-92
2021/07/29 07:07:01;;;;;;;17.53;4.23;;;22.90;51.50;;;;;;4994271;28;20477;-92
2021/07/29 07:09:30;;;;;;;10.47;3.60;;;22.80;51.90;;;;;;4993745;28;20430;-93
2021/07/29 07:11:56;;;;;;;11.43;3.03;;;22.70;52.20;;;;;;4994252;28;20452;-92
2021/07/29 07:14:22;;;;;;;15.73;5.47;;;22.70;52.00;;;;;;4993697;28;21007;-92
2021/07/29 07:16:51;;;;;;;10.63;3.10;;;22.50;52.50;;;;;;4995380;28;20459;-92
2021/07/29 07:19:17;;;;;;;11.37;4.10;;;22.50;53.10;;;;;;4997614;28;20829;-92
2021/07/29 07:21:43;;;;;;;9.70;3.63;;;22.10;53.00;;;;;;4998429;28;20428;-93
2021/07/29 07:24:09;;;;;;;11.40;2.77;;;21.80;53.60;;;;;;4997593;28;20472;-92
2021/07/29 07:26:35;;;;;;;12.43;3.57;;;21.90;54.70;;;;;;4996828;28;20453;-93
2021/07/29 07:29:03;;;;;;;13.50;2.60;;;21.90;54.70;;;;;;4997833;28;20213;-93
2021/07/29 07:31:29;;;;;;;9.13;3.10;;;22.00;54.30;;;;;;4997506;28;20183;-93
2021/07/29 07:33:56;;;;;;;11.43;3.47;;;21.90;53.70;;;;;;4997470;28;20983;-92
2021/07/29 07:36:22;;;;;;;18.83;3.23;;;22.10;54.00;;;;;;5001119;28;20529;-93
2021/07/29 07:38:52;;;;;;;8.43;4.17;;;22.30;53.60;;;;;;4998038;28;20851;-92
2021/07/29 07:41:18;;;;;;;16.10;4.63;;;22.20;53.20;;;;;;5003583;28;20414;-92
2021/07/29 07:43:45;;;;;;;10.50;3.33;;;22.30;53.60;;;;;;4998888;28;20822;-93
2021/07/29 07:46:11;;;;;;;9.93;3.13;;;22.70;52.60;;;;;;4996902;28;20426;-92
2021/07/29 07:48:37;;;;;;;11.37;3.10;;;22.50;52.40;;;;;;4997206;28;20723;-92
2021/07/29 07:51:03;;;;;;;9.70;3.50;;;22.60;51.90;;;;;;4997700;28;20484;-93
2021/07/29 07:53:29;;;;;;;5.70;2.80;;;22.60;52.00;;;;;;4996884;28;20533;-93
2021/07/29 07:55:56;;;;;;;9.40;3.30;;;22.80;51.90;;;;;;4997815;28;20425;-93
2021/07/29 07:58:22;;;;;;;5.60;3.13;;;22.90;51.70;;;;;;4998062;28;20410;-93
2021/07/29 08:00:48;;;;;;;12.20;3.17;;;23.20;50.80;;;;;;4997739;28;20425;-92
2021/07/29 08:03:14;;;;;;;13.93;3.47;;;23.10;50.20;;;;;;4997738;28;20456;-92
2021/07/29 08:05:40;;;;;;;13.87;3.33;;;23.30;50.90;;;;;;4997816;28;20446;-93
2021/07/29 08:08:12;;;;;;;6.70;2.90;;;23.70;49.80;;;;;;4996137;28;20418;-93
2021/07/29 08:10:39;;;;;;;12.93;3.57;;;23.60;48.90;;;;;;4996920;28;20411;-92
2021/07/29 08:13:06;;;;;;;15.70;2.93;;;23.70;49.00;;;;;;4997189;28;20481;-92
2021/07/29 08:15:35;;;;;;;13.13;3.27;;;23.70;48.90;;;;;;4998910;28;20414;-92
2021/07/29 08:18:01;;;;;;;8.67;3.43;;;23.60;49.00;;;;;;5002552;28;20445;-92
2021/07/29 08:20:28;;;;;;;7.33;2.53;;;23.40;49.10;;;;;;5007094;28;20485;-92
2021/07/29 08:22:56;;;;;;;12.07;3.30;;;23.30;49.40;;;;;;4997426;28;20446;-92
2021/07/29 08:25:22;;;;;;;11.17;3.20;;;23.10;49.70;;;;;;4996384;28;20511;-92
2021/07/29 08:27:50;;;;;;;5.37;2.50;;;23.00;50.10;;;;;;4996413;28;20430;-92
2021/07/29 08:30:20;;;;;;;11.37;3.53;;;22.80;50.20;;;;;;4996253;28;20426;-93
2021/07/29 08:32:46;;;;;;;17.87;3.27;;;22.60;50.50;;;;;;4996431;28;20472;-92
2021/07/29 08:35:12;;;;;;;13.20;3.20;;;22.40;51.20;;;;;;4998362;28;20766;-92
2021/07/29 08:37:44;;;;;;;6.47;3.33;;;22.10;51.20;;;;;;4998073;28;20473;-92
2021/07/29 08:40:10;;;;;;;9.73;3.20;;;22.10;51.80;;;;;;5010877;28;20421;-92
2021/07/29 08:42:36;;;;;;;6.50;3.00;;;22.20;51.70;;;;;;5005798;28;20469;-92
2021/07/29 08:45:05;;;;;;;16.73;4.07;;;22.20;51.70;;;;;;5003884;28;20508;-92
2021/07/29 08:47:32;;;;;;;10.90;3.30;;;22.10;50.80;;;;;;5005520;28;20610;-91
2021/07/29 08:50:03;;;;;;;7.33;3.40;;;22.00;50.90;;;;;;5008342;28;20418;-92
2021/07/29 08:52:29;;;;;;;7.27;2.90;;;21.90;51.30;;;;;;5009937;28;20629;-92
2021/07/29 08:54:54;;;;;;;16.13;3.63;;;21.70;50.70;;;;;;5012780;28;20429;-92
2021/07/29 08:57:28;;;;;;;5.00;2.87;;;21.70;50.80;;;;;;5013101;28;20190;-92
2021/07/29 09:00:00;;;;;;;9.87;3.70;;;21.80;51.10;;;;;;5010463;28;20168;-92
2021/07/29 09:02:27;;;;;;;5.53;2.60;;;21.90;51.50;;;;;;4997796;28;20450;-92
2021/07/29 09:05:10;;;;;;;11.73;3.50;;;21.90;51.90;;;;;;4995692;28;20436;-93
2021/07/29 09:07:36;;;;;;;10.70;3.53;;;21.80;51.80;;;;;;4995898;28;20849;-92
2021/07/29 09:10:17;;;;;;;7.53;2.83;;;22.10;51.80;;;;;;4995800;28;20423;-93
2021/07/29 09:12:43;;;;;;;8.00;2.73;;;22.30;51.20;;;;;;4996362;28;20481;-93
2021/07/29 09:15:20;;;;;;;8.17;2.47;;;22.30;50.50;;;;;;4995638;28;20985;-92
2021/07/29 09:17:46;;;;;;;8.57;2.80;;;22.30;49.70;;;;;;4995781;28;20183;-93
2021/07/29 09:20:19;;;;;;;8.47;2.57;;;22.40;50.20;;;;;;4996080;28;20960;-93
2021/07/29 09:22:52;;;;;;;8.23;3.57;;;22.50;49.70;;;;;;4995196;28;20446;-93
2021/07/29 09:25:22;;;;;;;12.27;3.33;;;22.70;49.90;;;;;;4995354;28;20521;-93
2021/07/29 09:27:50;;;;;;;6.40;2.53;;;22.90;49.10;;;;;;4996108;28;20475;-93
2021/07/29 09:30:28;;;;;;;7.30;2.90;;;23.00;48.60;;;;;;4995845;28;20530;-93
2021/07/29 09:33:12;;;;;;;13.50;2.20;;;23.30;48.20;;;;;;4996584;28;20470;-92
2021/07/29 09:35:50;;;;;;;6.53;2.57;;;23.60;47.00;;;;;;4997607;28;20434;-92
2021/07/29 09:38:31;;;;;;;7.70;2.83;;;23.60;46.10;;;;;;4995998;28;20426;-92
2021/07/29 09:41:00;;;;;;;4.87;2.53;;;23.70;46.00;;;;;;4994544;28;20425;-93
2021/07/29 09:43:32;;;;;;;10.70;3.13;;;23.50;45.20;;;;;;4994825;28;20948;-93
2021/07/29 09:46:00;;;;;;;5.77;3.00;;;23.70;45.60;;;;;;5012531;28;20905;-92
2021/07/29 09:48:26;;;;;;;9.47;3.10;;;23.50;44.60;;;;;;4995389;28;20437;-92
2021/07/29 09:51:01;;;;;;;6.30;2.90;;;23.60;44.40;;;;;;4996693;28;20419;-92
2021/07/29 09:53:34;;;;;;;6.63;2.20;;;23.40;44.20;;;;;;4977955;28;20553;-92
2021/07/29 09:56:09;;;;;;;8.93;2.80;;;23.20;44.00;;;;;;4994679;28;20422;-92
2021/07/29 09:58:36;;;;;;;7.17;3.03;;;23.10;44.40;;;;;;4995637;28;20414;-92
2021/07/29 10:01:06;;;;;;;6.57;2.13;;;23.30;44.10;;;;;;4995564;28;20417;-92
2021/07/29 10:03:34;;;;;;;8.63;2.50;;;23.30;44.00;;;;;;4995843;28;20529;-92
2021/07/29 10:06:07;;;;;;;6.30;2.57;;;23.40;44.00;;;;;;4995333;28;20501;-92
2021/07/29 10:08:35;;;;;;;7.83;2.63;;;23.20;43.80;;;;;;4995366;28;20437;-92
2021/07/29 10:11:04;;;;;;;11.17;3.07;;;23.30;44.30;;;;;;4997432;28;20858;-93
2021/07/29 10:13:34;;;;;;;4.40;2.67;;;23.10;44.10;;;;;;4998143;28;20469;-92
2021/07/29 10:16:00;;;;;;;8.10;2.60;;;23.30;45.10;;;;;;4998716;28;20414;-92
2021/07/29 10:18:26;;;;;;;5.57;2.53;;;23.20;44.50;;;;;;4994977;28;20433;-93
2021/07/29 10:21:22;;;;;;;5.90;2.50;;;23.40;43.70;;;;;;4994470;28;20426;-93
2021/07/29 10:23:52;;;;;;;5.67;1.87;;;23.40;43.50;;;;;;4996198;28;20202;-92
2021/07/29 10:26:19;;;;;;;6.93;2.47;;;23.50;42.90;;;;;;4995361;28;20426;-93
2021/07/29 10:28:46;;;;;;;5.30;2.87;;;23.40;43.10;;;;;;4999228;28;20446;-92
2021/07/29 10:31:14;;;;;;;11.53;2.67;;;23.20;43.50;;;;;;5003761;28;20956;-92
2021/07/29 10:33:41;;;;;;;5.10;2.50;;;22.90;44.10;;;;;;4995185;28;20535;-92
2021/07/29 10:36:08;;;;;;;6.10;2.50;;;22.90;44.50;;;;;;4995280;28;20502;-92
2021/07/29 10:38:39;;;;;;;6.40;2.83;;;23.00;44.80;;;;;;4994264;28;20426;-92
2021/07/29 10:41:34;;;;;;;10.33;2.53;;;23.00;44.80;;;;;;4994952;28;20468;-92
2021/07/29 10:44:03;;;;;;;7.07;2.43;;;23.00;44.80;;;;;;4993846;28;20453;-92
2021/07/29 10:47:02;;;;;;;3.90;2.60;;;22.70;43.90;;;;;;4994117;28;20441;-93
2021/07/29 10:49:46;;;;;;;5.43;2.17;;;22.70;45.00;;;;;;4980764;28;20521;-93
2021/07/29 10:52:13;;;;;;;11.97;2.50;;;23.00;45.60;;;;;;4999313;28;20438;-93
2021/07/29 10:54:41;;;;;;;6.37;1.90;;;23.00;44.70;;;;;;4994446;28;20421;-92
2021/07/29 10:57:08;;;;;;;5.20;2.60;;;22.80;43.70;;;;;;4993446;28;20410;-92
2021/07/29 10:59:35;;;;;;;6.20;2.40;;;22.80;43.90;;;;;;4993975;28;20522;-93
2021/07/29 11:02:04;;;;;;;4.93;2.57;;;23.00;44.50;;;;;;4994076;28;20442;-92
2021/07/29 11:04:31;;;;;;;11.43;2.80;;;23.20;44.50;;;;;;4994256;28;20833;-93
2021/07/29 11:07:01;;;;;;;10.50;3.63;;;23.10;44.30;;;;;;4994931;28;20885;-92
2021/07/29 11:09:32;;;;;;;8.10;3.77;;;23.20;44.30;;;;;;4994045;28;20406;-92
2021/07/29 11:11:59;;;;;;;3.50;2.00;;;23.20;44.00;;;;;;4993495;28;20683;-92
2021/07/29 11:14:34;;;;;;;13.87;3.00;;;23.20;43.20;;;;;;4993715;28;20438;-92
2021/07/29 11:17:04;;;;;;;6.43;2.70;;;23.30;43.00;;;;;;4993998;28;20782;-92
2021/07/29 11:19:41;;;;;;;12.43;3.60;;;23.40;43.50;;;;;;4994425;28;20504;-92
2021/07/29 11:22:08;;;;;;;7.93;2.60;;;23.60;43.40;;;;;;4999048;28;20442;-91
2021/07/29 11:24:35;;;;;;;9.77;2.87;;;23.40;43.20;;;;;;4993979;28;20761;-92
2021/07/29 11:27:02;;;;;;;7.57;4.13;;;23.50;43.40;;;;;;4997504;28;20422;-92
2021/07/29 11:29:28;;;;;;;7.20;2.90;;;23.40;42.70;;;;;;4993646;28;20427;-92
2021/07/29 11:31:57;;;;;;;5.50;3.50;;;23.90;42.70;;;;;;4993081;28;20529;-92
2021/07/29 11:34:34;;;;;;;6.30;3.03;;;23.80;42.10;;;;;;4993119;28;20187;-92
2021/07/29 11:37:00;;;;;;;8.50;3.63;;;23.70;42.60;;;;;;4993834;28;20441;-92
2021/07/29 11:39:36;;;;;;;9.57;2.53;;;23.60;43.10;;;;;;4993957;28;20441;-92
2021/07/29 11:42:03;;;;;;;8.53;3.17;;;23.70;43.00;;;;;;4993784;28;20462;-92
2021/07/29 11:44:47;;;;;;;9.57;3.00;;;23.80;43.30;;;;;;4994471;28;20453;-92
2021/07/29 11:47:13;;;;;;;19.00;4.67;;;23.80;43.10;;;;;;4993257;28;20936;-92
2021/07/29 11:49:51;;;;;;;13.80;3.70;;;23.80;42.70;;;;;;4998270;28;20426;-92
2021/07/29 11:52:20;;;;;;;8.40;2.57;;;23.60;42.80;;;;;;4997713;28;20214;-92
2021/07/29 11:54:47;;;;;;;7.80;2.70;;;23.60;43.10;;;;;;4994965;28;20506;-92
2021/07/29 11:57:14;;;;;;;13.83;3.77;;;23.70;43.80;;;;;;5005558;28;20920;-93
2021/07/29 11:59:46;;;;;;;22.37;3.00;;;23.60;43.40;;;;;;4993607;28;20414;-92
2021/07/29 12:02:12;;;;;;;7.10;2.30;;;23.70;43.70;;;;;;4994884;28;20963;-92
2021/07/29 12:04:43;;;;;;;5.80;2.73;;;23.90;43.80;;;;;;4997050;28;20493;-93
2021/07/29 12:07:10;;;;;;;5.03;2.37;;;24.20;43.40;;;;;;4997149;28;20175;-92
2021/07/29 12:09:45;;;;;;;4.43;2.93;;;24.40;42.50;;;;;;4997068;28;20418;-92
2021/07/29 12:15:34;;;;;;;6.83;2.50;;;24.50;41.20;;;;;;4998633;28;20406;-92
2021/07/29 12:18:16;;;;;;;7.53;2.70;;;24.40;40.10;;;;;;4996701;28;20426;-92
2021/07/29 12:21:00;;;;;;;7.67;2.63;;;24.20;39.60;;;;;;4997208;28;20175;-92
2021/07/29 12:23:29;;;;;;;5.53;2.33;;;24.20;39.60;;;;;;5001577;28;20441;-92
2021/07/29 12:26:09;;;;;;;6.60;2.53;;;24.10;39.40;;;;;;4997096;28;20423;-92
2021/07/29 12:28:45;;;;;;;6.57;2.87;;;24.20;39.40;;;;;;4997440;28;20442;-92
2021/07/29 12:31:25;;;;;;;3.33;2.33;;;24.30;39.20;;;;;;4996763;28;20422;-92
2021/07/29 12:33:57;;;;;;;8.13;2.63;;;24.50;39.10;;;;;;4997784;28;20465;-92
2021/07/29 12:36:24;;;;;;;11.30;2.50;;;24.40;38.60;;;;;;4996488;28;20411;-92
2021/07/29 12:39:01;;;;;;;14.70;3.00;;;24.40;38.30;;;;;;4996337;28;20445;-92
2021/07/29 12:41:35;;;;;;;4.93;2.10;;;24.40;38.50;;;;;;4996471;28;20418;-92
2021/07/29 12:44:19;;;;;;;7.80;2.50;;;24.30;37.60;;;;;;4995962;28;20418;-92
2021/07/29 12:46:46;;;;;;;7.90;2.70;;;24.20;37.90;;;;;;4996250;28;20894;-92
2021/07/29 12:49:13;;;;;;;3.27;2.20;;;24.10;37.80;;;;;;4995407;28;20529;-93
2021/07/29 12:51:47;;;;;;;9.00;3.00;;;24.00;37.80;;;;;;4995651;28;20422;-92